KARV/ARV METAR and TAF weather

Enter ICAO airport designator
Station Type Date Time Source
KARV METAR 2019/08/24 19:55 UTC NOAA

KARV 241955Z AUTO 16007KT 10SM SCT038 21/12 A3029 RMK AO2 T02080117


Station Type Date Time Source
KARV Decoded METAR 2019/08/24 19:55 UTC NOAA

Station name not available
Aug 24, 2019 - 03:55 PM EDT / 2019.08.24 1955 UTC
Wind: from the SSE (160 degrees) at 8 MPH (7 KT):0
Visibility: 10 mile(s):0
Sky conditions: partly cloudy
Temperature: 69.4 F (20.8 C)
Dew Point: 53.1 F (11.7 C)
Relative Humidity: 55%
Pressure (altimeter): 30.29 in. Hg (1025 hPa)
ob: KARV 241955Z AUTO 16007KT 10SM SCT038 21/12 A3029 RMK AO2 T02080117
cycle: 20

Station Type Date Time Source
KARV TAF UTC NOAA

Error!

Example: see airport list